Language: 


Des rapports , des résumés tant et plus, au choix de chacun....


Données Historiques de Météogheer
Journalier Rapport pour Février 27, 2018 Unitée:  Les deux    Impériale   Métrique
Suivant Jour »
Journalier Hebdomadaire Mensuel Annuel Sur mesure
  Max: Min: Moyenne:
Température: 37 °F /  2.8 °C 21.7 °F /  -5.7 °C 26.4 °F /  -3.1 °C
Point de rosée: 15.8 °F /  -9.0 °C 8.6 °F /  -13.0 °C 12.6 °F /  -10.8 °C
Humidité: 80% 0% 59%
Vent: 17.4mph /  28.0km/h - 7.5mph /  12.1km/h
Rafales: 23mph /  37.0km/h - -
Vent- - ENE
Pression: 30.3 in /  1024.9 hPa 0 in /  0.0 hPa -
Pluie: 0 in /  0.0 mm    
Historical Graphs
 
 
Données tabulaires pour Février 27, 2018
Heure Température Point de rosée Pression Vent Vent Rafales Humidité Pluie Taux (Horaire) Conditions
00:02 23.9 °F /  -4.5 °C 12.2 °F /  -11.0 °C 30.2in /  1023.9hPa NNE 7.2mph /  11.6km/h 7.4mph /  11.9km/h 66% 0in /  0.0mm
00:07 23.9 °F /  -4.5 °C 12.2 °F /  -11.0 °C 30.2in /  1023.9hPa North 1.6mph /  2.6km/h 7.4mph /  11.9km/h 66% 0in /  0.0mm
00:12 23.9 °F /  -4.5 °C 14 °F /  -10.0 °C 30.2in /  1023.9hPa NNE 2.9mph /  4.7km/h 7.2mph /  11.6km/h 67% 0in /  0.0mm
00:17 23.7 °F /  -4.6 °C 14 °F /  -10.0 °C 30.2in /  1023.9hPa North 4.7mph /  7.6km/h 6.3mph /  10.1km/h 67% 0in /  0.0mm
00:22 23.5 °F /  -4.7 °C 14 °F /  -10.0 °C 30.2in /  1023.9hPa NNE 4.3mph /  6.9km/h 6.3mph /  10.1km/h 67% 0in /  0.0mm
00:27 23.5 °F /  -4.7 °C 14 °F /  -10.0 °C 30.2in /  1023.9hPa North 4.3mph /  6.9km/h 6.3mph /  10.1km/h 68% 0in /  0.0mm
00:32 23.5 °F /  -4.7 °C 14 °F /  -10.0 °C 30.3in /  1024.9hPa NNE 6mph /  9.7km/h 6.9mph /  11.1km/h 68% 0in /  0.0mm
00:37 23.5 °F /  -4.7 °C 14 °F /  -10.0 °C 30.3in /  1024.9hPa NE 6mph /  9.7km/h 7.4mph /  11.9km/h 69% 0in /  0.0mm
00:42 23.4 °F /  -4.8 °C 14 °F /  -10.0 °C 30.3in /  1024.9hPa North 6.3mph /  10.1km/h 7.4mph /  11.9km/h 69% 0in /  0.0mm
00:47 23.4 °F /  -4.8 °C 14 °F /  -10.0 °C 30.3in /  1024.9hPa NNE 4.9mph /  7.9km/h 7.8mph /  12.6km/h 70% 0in /  0.0mm
00:52 23.4 °F /  -4.8 °C 14 °F /  -10.0 °C 30.3in /  1024.9hPa NNE 4mph /  6.4km/h 7.8mph /  12.6km/h 71% 0in /  0.0mm
00:57 23.4 °F /  -4.8 °C 14 °F /  -10.0 °C 30.3in /  1024.9hPa NNE 6mph /  9.7km/h 7.6mph /  12.2km/h 72% 0in /  0.0mm
01:02 23.2 °F /  -4.9 °C 14 °F /  -10.0 °C 30.3in /  1024.9hPa NE 4.9mph /  7.9km/h 6.5mph /  10.5km/h 72% 0in /  0.0mm
01:07 23.2 °F /  -4.9 °C 14 °F /  -10.0 °C 30.3in /  1024.9hPa NNE 3.1mph /  5.0km/h 6.5mph /  10.5km/h 72% 0in /  0.0mm
01:12 22.8 °F /  -5.1 °C 14 °F /  -10.0 °C 30.3in /  1024.9hPa NNE 6.3mph /  10.1km/h 6.5mph /  10.5km/h 72% 0in /  0.0mm
01:17 22.8 °F /  -5.1 °C 14 °F /  -10.0 °C 30.3in /  1024.9hPa North 6.5mph /  10.5km/h 6.9mph /  11.1km/h 72% 0in /  0.0mm
01:27 22.8 °F /  -5.1 °C 14 °F /  -10.0 °C 30.3in /  1024.9hPa NE 4.3mph /  6.9km/h 8.9mph /  14.3km/h 73% 0in /  0.0mm
01:32 22.8 °F /  -5.1 °C 14 °F /  -10.0 °C 30.3in /  1024.9hPa North 4.9mph /  7.9km/h 7.2mph /  11.6km/h 74% 0in /  0.0mm
01:37 22.8 °F /  -5.1 °C 14 °F /  -10.0 °C 30.3in /  1024.9hPa NNE 5.6mph /  9.0km/h 6.3mph /  10.1km/h 74% 0in /  0.0mm
01:42 22.8 °F /  -5.1 °C 14 °F /  -10.0 °C 30.3in /  1024.9hPa NNE 6mph /  9.7km/h 7.2mph /  11.6km/h 74% 0in /  0.0mm
01:48 22.8 °F /  -5.1 °C 15.8 °F /  -9.0 °C 30.2in /  1023.9hPa NNE 6.5mph /  10.5km/h 7.2mph /  11.6km/h 75% 0in /  0.0mm
01:53 22.8 °F /  -5.1 °C 15.8 °F /  -9.0 °C 30.2in /  1023.9hPa NNE 5.6mph /  9.0km/h 7.2mph /  11.6km/h 75% 0in /  0.0mm
01:58 22.8 °F /  -5.1 °C 15.8 °F /  -9.0 °C 30.2in /  1023.9hPa NNE 6mph /  9.7km/h 7.2mph /  11.6km/h 75% 0in /  0.0mm
02:03 22.8 °F /  -5.1 °C 15.8 °F /  -9.0 °C 30.2in /  1023.9hPa NE 5.6mph /  9.0km/h 6.5mph /  10.5km/h 75% 0in /  0.0mm
02:08 22.8 °F /  -5.1 °C 15.8 °F /  -9.0 °C 30.2in /  1023.9hPa NNE 3.6mph /  5.8km/h 7.4mph /  11.9km/h 75% 0in /  0.0mm
02:13 22.8 °F /  -5.1 °C 15.8 °F /  -9.0 °C 30.2in /  1023.9hPa North 3.4mph /  5.5km/h 7.4mph /  11.9km/h 75% 0in /  0.0mm
02:23 22.6 °F /  -5.2 °C 15.8 °F /  -9.0 °C 30.2in /  1023.9hPa NE 3.4mph /  5.5km/h 5.4mph /  8.7km/h 75% 0in /  0.0mm
02:28 22.5 °F /  -5.3 °C 14 °F /  -10.0 °C 30.2in /  1023.9hPa NNE 4.3mph /  6.9km/h 6.3mph /  10.1km/h 75% 0in /  0.0mm
02:33 22.5 °F /  -5.3 °C 14 °F /  -10.0 °C 30.2in /  1023.9hPa NNE 3.6mph /  5.8km/h 7.6mph /  12.2km/h 75% 0in /  0.0mm
02:38 22.6 °F /  -5.2 °C 15.8 °F /  -9.0 °C 30.2in /  1023.9hPa North 4.7mph /  7.6km/h 7.6mph /  12.2km/h 76% 0in /  0.0mm
02:43 22.6 °F /  -5.2 °C 15.8 °F /  -9.0 °C 30.2in /  1023.9hPa NE 2.2mph /  3.5km/h 7.4mph /  11.9km/h 76% 0in /  0.0mm
02:48 22.6 °F /  -5.2 °C 15.8 °F /  -9.0 °C 30.2in /  1022.9hPa NNE 3.6mph /  5.8km/h 7.2mph /  11.6km/h 77% 0in /  0.0mm
02:53 22.6 °F /  -5.2 °C 15.8 °F /  -9.0 °C 30.2in /  1022.9hPa NNE 5.6mph /  9.0km/h 6.3mph /  10.1km/h 77% 0in /  0.0mm
02:58 22.6 °F /  -5.2 °C 15.8 °F /  -9.0 °C 30.2in /  1022.9hPa NE 3.6mph /  5.8km/h 6.3mph /  10.1km/h 77% 0in /  0.0mm
03:03 22.6 °F /  -5.2 °C 15.8 °F /  -9.0 °C 30.2in /  1022.9hPa NE 2.9mph /  4.7km/h 5.8mph /  9.3km/h 77% 0in /  0.0mm
03:08 22.5 °F /  -5.3 °C 15.8 °F /  -9.0 °C 30.2in /  1022.9hPa North 5.4mph /  8.7km/h 6.3mph /  10.1km/h 77% 0in /  0.0mm
03:13 22.5 °F /  -5.3 °C 15.8 °F /  -9.0 °C 30.2in /  1022.9hPa NE 4.5mph /  7.2km/h 6.3mph /  10.1km/h 77% 0in /  0.0mm
03:18 22.5 °F /  -5.3 °C 15.8 °F /  -9.0 °C 30.2in /  1023.9hPa North 6mph /  9.7km/h 6.5mph /  10.5km/h 77% 0in /  0.0mm
03:23 22.6 °F /  -5.2 °C 15.8 °F /  -9.0 °C 30.2in /  1023.9hPa NE 3.4mph /  5.5km/h 6.5mph /  10.5km/h 77% 0in /  0.0mm
03:28 22.6 °F /  -5.2 °C 15.8 °F /  -9.0 °C 30.2in /  1023.9hPa NE 3.8mph /  6.1km/h 5.4mph /  8.7km/h 77% 0in /  0.0mm
03:33 22.6 °F /  -5.2 °C 15.8 °F /  -9.0 °C 30.2in /  1022.9hPa NNE 2.9mph /  4.7km/h 5.6mph /  9.0km/h 77% 0in /  0.0mm
03:38 22.5 °F /  -5.3 °C 15.8 °F /  -9.0 °C 30.2in /  1022.9hPa NNE 3.8mph /  6.1km/h 5.8mph /  9.3km/h 77% 0in /  0.0mm
03:44 22.5 °F /  -5.3 °C 15.8 °F /  -9.0 °C 30.2in /  1022.9hPa North 4.3mph /  6.9km/h 6.3mph /  10.1km/h 77% 0in /  0.0mm
03:49 22.5 °F /  -5.3 °C 15.8 °F /  -9.0 °C 30.2in /  1022.9hPa North 3.6mph /  5.8km/h 7.2mph /  11.6km/h 77% 0in /  0.0mm
03:54 22.5 °F /  -5.3 °C 15.8 °F /  -9.0 °C 30.2in /  1022.9hPa North 3.1mph /  5.0km/h 7.2mph /  11.6km/h 77% 0in /  0.0mm
03:59 22.5 °F /  -5.3 °C 15.8 °F /  -9.0 °C 30.2in /  1022.9hPa ENE 3.6mph /  5.8km/h 5.8mph /  9.3km/h 77% 0in /  0.0mm
04:04 22.5 °F /  -5.3 °C 15.8 °F /  -9.0 °C 30.2in /  1022.9hPa NE 1.3mph /  2.1km/h 5.8mph /  9.3km/h 77% 0in /  0.0mm
04:09 22.5 °F /  -5.3 °C 15.8 °F /  -9.0 °C 30.2in /  1022.9hPa NE 6mph /  9.7km/h 7.6mph /  12.2km/h 77% 0in /  0.0mm
04:14 22.6 °F /  -5.2 °C 15.8 °F /  -9.0 °C 30.2in /  1022.9hPa NE 6.7mph /  10.8km/h 7.6mph /  12.2km/h 78% 0in /  0.0mm
04:19 22.6 °F /  -5.2 °C 15.8 °F /  -9.0 °C 30.2in /  1022.9hPa NE 4.3mph /  6.9km/h 7.4mph /  11.9km/h 79% 0in /  0.0mm
04:24 22.6 °F /  -5.2 °C 15.8 °F /  -9.0 °C 30.2in /  1022.9hPa East 5.6mph /  9.0km/h 7.8mph /  12.6km/h 79% 0in /  0.0mm
04:29 22.6 °F /  -5.2 °C 15.8 °F /  -9.0 °C 30.2in /  1021.9hPa NE 6mph /  9.7km/h 7.8mph /  12.6km/h 79% 0in /  0.0mm
04:34 22.5 °F /  -5.3 °C 15.8 °F /  -9.0 °C 30.2in /  1021.9hPa NNE 6.3mph /  10.1km/h 7.4mph /  11.9km/h 79% 0in /  0.0mm
04:39 22.5 °F /  -5.3 °C 15.8 °F /  -9.0 °C 30.2in /  1021.9hPa NE 6.3mph /  10.1km/h 7.6mph /  12.2km/h 79% 0in /  0.0mm
04:44 22.6 °F /  -5.2 °C 15.8 °F /  -9.0 °C 30.2in /  1022.9hPa NNE 6.5mph /  10.5km/h 7.8mph /  12.6km/h 80% 0in /  0.0mm
04:49 22.6 °F /  -5.2 °C 15.8 °F /  -9.0 °C 30.2in /  1022.9hPa NNE 7.2mph /  11.6km/h 8.1mph /  13.0km/h 80% 0in /  0.0mm
04:54 22.6 °F /  -5.2 °C 15.8 °F /  -9.0 °C 30.2in /  1022.9hPa NE 6.3mph /  10.1km/h 8.1mph /  13.0km/h 80% 0in /  0.0mm
04:59 22.8 °F /  -5.1 °C 15.8 °F /  -9.0 °C 30.2in /  1021.9hPa NNE 5.6mph /  9.0km/h 7.8mph /  12.6km/h 79% 0in /  0.0mm
05:04 22.8 °F /  -5.1 °C 15.8 °F /  -9.0 °C 30.2in /  1021.9hPa NNE 5.8mph /  9.3km/h 7.6mph /  12.2km/h 79% 0in /  0.0mm
05:09 22.6 °F /  -5.2 °C 15.8 °F /  -9.0 °C 30.2in /  1021.9hPa NNE 6mph /  9.7km/h 7.8mph /  12.6km/h 79% 0in /  0.0mm
05:14 22.6 °F /  -5.2 °C 15.8 °F /  -9.0 °C 30.2in /  1021.9hPa NE 7.4mph /  11.9km/h 8.1mph /  13.0km/h 79% 0in /  0.0mm
05:19 22.6 °F /  -5.2 °C 15.8 °F /  -9.0 °C 30.2in /  1021.9hPa NE 6.3mph /  10.1km/h 8.1mph /  13.0km/h 79% 0in /  0.0mm
05:24 22.6 °F /  -5.2 °C 15.8 °F /  -9.0 °C 30.2in /  1021.9hPa NNE 8.1mph /  13.0km/h 8.5mph /  13.7km/h 79% 0in /  0.0mm
05:30 22.6 °F /  -5.2 °C 15.8 °F /  -9.0 °C 30.2in /  1021.9hPa NE 6mph /  9.7km/h 8.7mph /  14.0km/h 79% 0in /  0.0mm
05:35 22.6 °F /  -5.2 °C 15.8 °F /  -9.0 °C 30.2in /  1021.9hPa NNE 6.5mph /  10.5km/h 8.7mph /  14.0km/h 79% 0in /  0.0mm
05:40 22.6 °F /  -5.2 °C 15.8 °F /  -9.0 °C 30.2in /  1021.9hPa NNE 7.4mph /  11.9km/h 8.5mph /  13.7km/h 79% 0in /  0.0mm
05:45 22.6 °F /  -5.2 °C 15.8 °F /  -9.0 °C 30.2in /  1021.9hPa NE 6.5mph /  10.5km/h 8.5mph /  13.7km/h 79% 0in /  0.0mm
05:50 22.6 °F /  -5.2 °C 15.8 °F /  -9.0 °C 30.2in /  1021.9hPa NE 7.6mph /  12.2km/h 8.5mph /  13.7km/h 79% 0in /  0.0mm
05:55 22.6 °F /  -5.2 °C 15.8 °F /  -9.0 °C 30.2in /  1021.9hPa NNE 7.2mph /  11.6km/h 8.5mph /  13.7km/h 79% 0in /  0.0mm
06:00 22.6 °F /  -5.2 °C 15.8 °F /  -9.0 °C 30.2in /  1021.9hPa NE 6.5mph /  10.5km/h 8.5mph /  13.7km/h 79% 0in /  0.0mm
06:05 22.6 °F /  -5.2 °C 15.8 °F /  -9.0 °C 30.2in /  1021.9hPa ENE 7.4mph /  11.9km/h 8.5mph /  13.7km/h 79% 0in /  0.0mm
06:10 22.6 °F /  -5.2 °C 15.8 °F /  -9.0 °C 30.2in /  1021.9hPa NNE 6.5mph /  10.5km/h 8.5mph /  13.7km/h 79% 0in /  0.0mm
06:15 22.6 °F /  -5.2 °C 15.8 °F /  -9.0 °C 30.2in /  1021.9hPa NE 4.9mph /  7.9km/h 8.5mph /  13.7km/h 79% 0in /  0.0mm
06:20 22.6 °F /  -5.2 °C 15.8 °F /  -9.0 °C 30.2in /  1021.9hPa NNE 5.4mph /  8.7km/h 8.5mph /  13.7km/h 79% 0in /  0.0mm
06:25 22.5 °F /  -5.3 °C 15.8 °F /  -9.0 °C 30.2in /  1021.9hPa NE 8.1mph /  13.0km/h 8.1mph /  13.0km/h 78% 0in /  0.0mm
06:30 22.5 °F /  -5.3 °C 15.8 °F /  -9.0 °C 30.2in /  1021.9hPa NE 6.5mph /  10.5km/h 8.5mph /  13.7km/h 78% 0in /  0.0mm
06:35 22.5 °F /  -5.3 °C 15.8 °F /  -9.0 °C 30.2in /  1021.9hPa NE 3.8mph /  6.1km/h 8.5mph /  13.7km/h 78% 0in /  0.0mm
06:40 22.5 °F /  -5.3 °C 15.8 °F /  -9.0 °C 30.2in /  1021.9hPa NE 8.1mph /  13.0km/h 8.1mph /  13.0km/h 78% 0in /  0.0mm
06:45 22.5 °F /  -5.3 °C 15.8 °F /  -9.0 °C 30.2in /  1021.9hPa NNE 7.4mph /  11.9km/h 8.1mph /  13.0km/h 78% 0in /  0.0mm
06:50 22.5 °F /  -5.3 °C 15.8 °F /  -9.0 °C 30.2in /  1021.9hPa NNE 6.5mph /  10.5km/h 8.1mph /  13.0km/h 78% 0in /  0.0mm
06:51 22.5 °F /  -5.3 °C 15.8 °F /  -9.0 °C 30.2in /  1021.9hPa NE 6mph /  9.7km/h 8.1mph /  13.0km/h 78% 0in /  0.0mm
06:56 22.5 °F /  -5.3 °C 15.8 °F /  -9.0 °C 30.2in /  1021.9hPa NE 6mph /  9.7km/h 7.6mph /  12.2km/h 78% 0in /  0.0mm
07:01 22.5 °F /  -5.3 °C 15.8 °F /  -9.0 °C 30.2in /  1021.9hPa ENE 4.7mph /  7.6km/h 6.5mph /  10.5km/h 78% 0in /  0.0mm
07:06 22.3 °F /  -5.4 °C 15.8 °F /  -9.0 °C 30.2in /  1021.9hPa NE 3.4mph /  5.5km/h 6.5mph /  10.5km/h 77% 0in /  0.0mm
07:12 22.1 °F /  -5.5 °C 14 °F /  -10.0 °C 30.2in /  1021.9hPa ENE 3.8mph /  6.1km/h 6.3mph /  10.1km/h 77% 0in /  0.0mm
07:17 21.9 °F /  -5.6 °C 14 °F /  -10.0 °C 30.2in /  1021.9hPa ENE 4.9mph /  7.9km/h 6.9mph /  11.1km/h 77% 0in /  0.0mm
07:22 21.9 °F /  -5.6 °C 14 °F /  -10.0 °C 30.2in /  1021.9hPa ENE 4.7mph /  7.6km/h 6.9mph /  11.1km/h 77% 0in /  0.0mm
07:27 21.7 °F /  -5.7 °C 14 °F /  -10.0 °C 30.2in /  1021.9hPa NE 3.8mph /  6.1km/h 5.6mph /  9.0km/h 77% 0in /  0.0mm
07:32 21.7 °F /  -5.7 °C 14 °F /  -10.0 °C 30.2in /  1020.9hPa NE 5.8mph /  9.3km/h 6.5mph /  10.5km/h 77% 0in /  0.0mm
07:37 21.7 °F /  -5.7 °C 14 °F /  -10.0 °C 30.2in /  1020.9hPa ENE 7.4mph /  11.9km/h 7.4mph /  11.9km/h 77% 0in /  0.0mm
07:42 21.9 °F /  -5.6 °C 14 °F /  -10.0 °C 30.2in /  1020.9hPa ENE 5.8mph /  9.3km/h 7.8mph /  12.6km/h 78% 0in /  0.0mm
07:47 21.9 °F /  -5.6 °C 14 °F /  -10.0 °C 30.2in /  1021.9hPa ENE 6.3mph /  10.1km/h 7.8mph /  12.6km/h 78% 0in /  0.0mm
07:52 22.1 °F /  -5.5 °C 14 °F /  -10.0 °C 30.2in /  1021.9hPa NE 6mph /  9.7km/h 8.1mph /  13.0km/h 78% 0in /  0.0mm
07:57 22.3 °F /  -5.4 °C 15.8 °F /  -9.0 °C 30.2in /  1021.9hPa ENE 4.3mph /  6.9km/h 9.6mph /  15.4km/h 78% 0in /  0.0mm
08:02 22.3 °F /  -5.4 °C 15.8 °F /  -9.0 °C 30.2in /  1021.9hPa ENE 5.4mph /  8.7km/h 9.6mph /  15.4km/h 78% 0in /  0.0mm
08:09 32 °F /  0.0 °C 15.8 °F /  -9.0 °C 0in /  0.0hPa NE 6.3mph /  10.1km/h 7.4mph /  11.9km/h 0% 0in /  0.0mm
08:14 23.2 °F /  -4.9 °C 15.8 °F /  -9.0 °C 30.2in /  1021.9hPa NE 6.5mph /  10.5km/h 8.5mph /  13.7km/h 76% 0in /  0.0mm
08:19 23.2 °F /  -4.9 °C 15.8 °F /  -9.0 °C 30.2in /  1021.9hPa NE 6.9mph /  11.1km/h 8.5mph /  13.7km/h 76% 0in /  0.0mm
08:24 23.4 °F /  -4.8 °C 15.8 °F /  -9.0 °C 30.2in /  1021.9hPa NE 7.4mph /  11.9km/h 8.1mph /  13.0km/h 76% 0in /  0.0mm
08:29 23.7 °F /  -4.6 °C 15.8 °F /  -9.0 °C 30.2in /  1021.9hPa NE 5.8mph /  9.3km/h 8.7mph /  14.0km/h 74% 0in /  0.0mm
08:34 23.9 °F /  -4.5 °C 15.8 °F /  -9.0 °C 30.2in /  1021.9hPa ENE 5.6mph /  9.0km/h 8.7mph /  14.0km/h 74% 0in /  0.0mm
08:39 23.9 °F /  -4.5 °C 15.8 °F /  -9.0 °C 30.2in /  1021.9hPa NE 6.3mph /  10.1km/h 8.5mph /  13.7km/h 74% 0in /  0.0mm
08:44 23.9 °F /  -4.5 °C 15.8 °F /  -9.0 °C 30.2in /  1021.9hPa NNE 6.3mph /  10.1km/h 8.5mph /  13.7km/h 74% 0in /  0.0mm
08:49 23.9 °F /  -4.5 °C 15.8 °F /  -9.0 °C 30.2in /  1021.9hPa NE 7.6mph /  12.2km/h 11mph /  17.7km/h 74% 0in /  0.0mm
08:54 23.9 °F /  -4.5 °C 15.8 °F /  -9.0 °C 30.2in /  1021.9hPa NE 6mph /  9.7km/h 11mph /  17.7km/h 74% 0in /  0.0mm
08:59 23.9 °F /  -4.5 °C 15.8 °F /  -9.0 °C 30.2in /  1022.9hPa ENE 6mph /  9.7km/h 8.5mph /  13.7km/h 74% 0in /  0.0mm
09:04 23.9 °F /  -4.5 °C 15.8 °F /  -9.0 °C 30.2in /  1022.9hPa ENE 9.6mph /  15.4km/h 10.5mph /  16.9km/h 74% 0in /  0.0mm
09:09 23.9 °F /  -4.5 °C 15.8 °F /  -9.0 °C 30.2in /  1022.9hPa ENE 7.8mph /  12.6km/h 12.3mph /  19.8km/h 74% 0in /  0.0mm
09:14 23.9 °F /  -4.5 °C 15.8 °F /  -9.0 °C 30.2in /  1022.9hPa ENE 11.2mph /  18.0km/h 13.2mph /  21.2km/h 74% 0in /  0.0mm
09:19 23.9 °F /  -4.5 °C 15.8 °F /  -9.0 °C 30.2in /  1022.9hPa NE 12.1mph /  19.5km/h 13.2mph /  21.2km/h 74% 0in /  0.0mm
09:25 23.9 °F /  -4.5 °C 15.8 °F /  -9.0 °C 30.2in /  1022.9hPa East 12.3mph /  19.8km/h 12.5mph /  20.1km/h 74% 0in /  0.0mm
09:30 23.9 °F /  -4.5 °C 15.8 °F /  -9.0 °C 30.2in /  1022.9hPa East 8.9mph /  14.3km/h 12.5mph /  20.1km/h 74% 0in /  0.0mm
09:35 23.9 °F /  -4.5 °C 15.8 °F /  -9.0 °C 30.2in /  1022.9hPa ENE 6.5mph /  10.5km/h 12.5mph /  20.1km/h 74% 0in /  0.0mm
09:40 23.9 °F /  -4.5 °C 15.8 °F /  -9.0 °C 30.2in /  1022.9hPa ENE 9.4mph /  15.1km/h 13mph /  20.9km/h 74% 0in /  0.0mm
09:45 23.9 °F /  -4.5 °C 15.8 °F /  -9.0 °C 30.2in /  1022.9hPa ENE 9.6mph /  15.4km/h 13mph /  20.9km/h 74% 0in /  0.0mm
09:50 23.9 °F /  -4.5 °C 15.8 °F /  -9.0 °C 30.2in /  1022.9hPa ENE 7.4mph /  11.9km/h 11mph /  17.7km/h 74% 0in /  0.0mm
09:55 27.1 °F /  -2.7 °C 12.2 °F /  -11.0 °C 30.2in /  1022.9hPa NE 10.3mph /  16.6km/h 11mph /  17.7km/h 53% 0in /  0.0mm
10:00 27.1 °F /  -2.7 °C 12.2 °F /  -11.0 °C 30.2in /  1021.9hPa ENE 9.6mph /  15.4km/h 13.4mph /  21.6km/h 53% 0in /  0.0mm
10:05 27.3 °F /  -2.6 °C 10.4 °F /  -12.0 °C 30.2in /  1021.9hPa East 8.1mph /  13.0km/h 13.4mph /  21.6km/h 51% 0in /  0.0mm
10:10 27.3 °F /  -2.6 °C 10.4 °F /  -12.0 °C 30.2in /  1021.9hPa ENE 12.3mph /  19.8km/h 12.3mph /  19.8km/h 51% 0in /  0.0mm
10:15 27.3 °F /  -2.6 °C 10.4 °F /  -12.0 °C 30.2in /  1021.9hPa ENE 12.3mph /  19.8km/h 12.3mph /  19.8km/h 51% 0in /  0.0mm
10:20 27.3 °F /  -2.6 °C 10.4 °F /  -12.0 °C 30.2in /  1021.9hPa ENE 12.3mph /  19.8km/h 12.3mph /  19.8km/h 51% 0in /  0.0mm
10:25 27.3 °F /  -2.6 °C 10.4 °F /  -12.0 °C 30.2in /  1021.9hPa ENE 12.3mph /  19.8km/h 12.3mph /  19.8km/h 51% 0in /  0.0mm
10:30 27.3 °F /  -2.6 °C 10.4 °F /  -12.0 °C 30.2in /  1021.9hPa ENE 12.3mph /  19.8km/h 12.3mph /  19.8km/h 51% 0in /  0.0mm
10:35 27.3 °F /  -2.6 °C 10.4 °F /  -12.0 °C 30.2in /  1021.9hPa ENE 12.5mph /  20.1km/h 12.5mph /  20.1km/h 51% 0in /  0.0mm
10:40 27.3 °F /  -2.6 °C 10.4 °F /  -12.0 °C 30.2in /  1021.9hPa NE 10.5mph /  16.9km/h 12.5mph /  20.1km/h 51% 0in /  0.0mm
10:46 37 °F /  2.8 °C 10.4 °F /  -12.0 °C 30.2in /  1021.9hPa NE 12.3mph /  19.8km/h 18.1mph /  29.1km/h 32% 0in /  0.0mm
10:51 34 °F /  1.1 °C 10.4 °F /  -12.0 °C 30.2in /  1021.9hPa ENE 10.1mph /  16.3km/h 18.1mph /  29.1km/h 36% 0in /  0.0mm
10:56 32.2 °F /  0.1 °C 10.4 °F /  -12.0 °C 30.2in /  1021.9hPa ENE 10.3mph /  16.6km/h 17.7mph /  28.5km/h 39% 0in /  0.0mm
11:01 31.1 °F /  -0.5 °C 8.6 °F /  -13.0 °C 30.2in /  1021.9hPa East 11.2mph /  18.0km/h 17.7mph /  28.5km/h 41% 0in /  0.0mm
11:06 30.9 °F /  -0.6 °C 8.6 °F /  -13.0 °C 30.2in /  1021.9hPa East 16.6mph /  26.7km/h 16.6mph /  26.7km/h 41% 0in /  0.0mm
11:11 30.6 °F /  -0.8 °C 8.6 °F /  -13.0 °C 30.2in /  1021.9hPa NE 10.3mph /  16.6km/h 16.6mph /  26.7km/h 42% 0in /  0.0mm
11:16 30.4 °F /  -0.9 °C 8.6 °F /  -13.0 °C 30.2in /  1021.9hPa NE 11mph /  17.7km/h 16.6mph /  26.7km/h 42% 0in /  0.0mm
11:21 30.4 °F /  -0.9 °C 8.6 °F /  -13.0 °C 30.2in /  1021.9hPa NE 10.1mph /  16.3km/h 15.4mph /  24.8km/h 42% 0in /  0.0mm
11:26 30.6 °F /  -0.8 °C 8.6 °F /  -13.0 °C 30.2in /  1021.9hPa ENE 11mph /  17.7km/h 17.4mph /  28.0km/h 42% 0in /  0.0mm
11:31 30.6 °F /  -0.8 °C 8.6 °F /  -13.0 °C 30.2in /  1021.9hPa NE 14.5mph /  23.3km/h 17.7mph /  28.5km/h 42% 0in /  0.0mm
11:36 30.6 °F /  -0.8 °C 8.6 °F /  -13.0 °C 30.2in /  1021.9hPa ENE 9.6mph /  15.4km/h 17.7mph /  28.5km/h 42% 0in /  0.0mm
11:41 30.7 °F /  -0.7 °C 8.6 °F /  -13.0 °C 30.2in /  1021.9hPa NE 12.5mph /  20.1km/h 17.7mph /  28.5km/h 42% 0in /  0.0mm
11:46 30.7 °F /  -0.7 °C 8.6 °F /  -13.0 °C 30.2in /  1020.9hPa ENE 15.4mph /  24.8km/h 22.4mph /  36.0km/h 41% 0in /  0.0mm
11:51 30.7 °F /  -0.7 °C 8.6 °F /  -13.0 °C 30.2in /  1020.9hPa NNE 7.8mph /  12.6km/h 22.4mph /  36.0km/h 42% 0in /  0.0mm
11:56 30.9 °F /  -0.6 °C 8.6 °F /  -13.0 °C 30.2in /  1020.9hPa NE 8.7mph /  14.0km/h 15.4mph /  24.8km/h 41% 0in /  0.0mm
12:01 31.1 °F /  -0.5 °C 8.6 °F /  -13.0 °C 30.2in /  1020.9hPa East 10.1mph /  16.3km/h 15.9mph /  25.6km/h 41% 0in /  0.0mm
12:06 31.1 °F /  -0.5 °C 8.6 °F /  -13.0 °C 30.2in /  1020.9hPa NE 10.7mph /  17.2km/h 15.9mph /  25.6km/h 41% 0in /  0.0mm
12:11 31.6 °F /  -0.2 °C 10.4 °F /  -12.0 °C 30.2in /  1020.9hPa ENE 10.1mph /  16.3km/h 15.2mph /  24.5km/h 41% 0in /  0.0mm
12:16 32 °F /  0.0 °C 10.4 °F /  -12.0 °C 30.1in /  1019.9hPa NE 10.7mph /  17.2km/h 15.2mph /  24.5km/h 41% 0in /  0.0mm
12:21 31.8 °F /  -0.1 °C 10.4 °F /  -12.0 °C 30.1in /  1019.9hPa ENE 16.6mph /  26.7km/h 19mph /  30.6km/h 41% 0in /  0.0mm
12:27 32 °F /  0.0 °C 10.4 °F /  -12.0 °C 30.1in /  1019.9hPa NE 10.1mph /  16.3km/h 19mph /  30.6km/h 41% 0in /  0.0mm
12:32 32.2 °F /  0.1 °C 12.2 °F /  -11.0 °C 30.2in /  1020.9hPa NE 8.5mph /  13.7km/h 16.6mph /  26.7km/h 41% 0in /  0.0mm
12:37 32.2 °F /  0.1 °C 12.2 °F /  -11.0 °C 30.2in /  1020.9hPa NE 12.5mph /  20.1km/h 17.4mph /  28.0km/h 42% 0in /  0.0mm
12:42 32.2 °F /  0.1 °C 12.2 °F /  -11.0 °C 30.2in /  1020.9hPa NE 15.9mph /  25.6km/h 19.5mph /  31.4km/h 41% 0in /  0.0mm
12:47 31.8 °F /  -0.1 °C 10.4 °F /  -12.0 °C 30.2in /  1020.9hPa NE 17.2mph /  27.7km/h 19.5mph /  31.4km/h 41% 0in /  0.0mm
12:52 32 °F /  0.0 °C 10.4 °F /  -12.0 °C 30.2in /  1020.9hPa ENE 10.3mph /  16.6km/h 17.2mph /  27.7km/h 41% 0in /  0.0mm
12:57 31.3 °F /  -0.4 °C 8.6 °F /  -13.0 °C 30.2in /  1020.9hPa NE 10.5mph /  16.9km/h 17.9mph /  28.8km/h 41% 0in /  0.0mm
13:02 30.6 °F /  -0.8 °C 8.6 °F /  -13.0 °C 30.2in /  1020.9hPa NE 13.2mph /  21.2km/h 20.6mph /  33.1km/h 41% 0in /  0.0mm
13:07 31.1 °F /  -0.5 °C 8.6 °F /  -13.0 °C 30.2in /  1020.9hPa ENE 8.5mph /  13.7km/h 20.6mph /  33.1km/h 41% 0in /  0.0mm
13:12 32 °F /  0.0 °C 10.4 °F /  -12.0 °C 30.2in /  1020.9hPa ENE 6mph /  9.7km/h 16.3mph /  26.2km/h 41% 0in /  0.0mm
13:17 32.2 °F /  0.1 °C 12.2 °F /  -11.0 °C 30.2in /  1020.9hPa NE 17.4mph /  28.0km/h 17.7mph /  28.5km/h 41% 0in /  0.0mm
13:22 32.4 °F /  0.2 °C 12.2 °F /  -11.0 °C 30.2in /  1020.9hPa ENE 17mph /  27.4km/h 19.5mph /  31.4km/h 41% 0in /  0.0mm
13:27 31.8 °F /  -0.1 °C 10.4 °F /  -12.0 °C 30.2in /  1020.9hPa ENE 11.2mph /  18.0km/h 19.5mph /  31.4km/h 41% 0in /  0.0mm
13:32 31.8 °F /  -0.1 °C 10.4 °F /  -12.0 °C 30.2in /  1020.9hPa ENE 12.8mph /  20.6km/h 19.2mph /  30.9km/h 41% 0in /  0.0mm
13:37 31.8 °F /  -0.1 °C 10.4 °F /  -12.0 °C 30.2in /  1020.9hPa NE 12.8mph /  20.6km/h 17.7mph /  28.5km/h 41% 0in /  0.0mm
13:42 31.6 °F /  -0.2 °C 10.4 °F /  -12.0 °C 30.2in /  1020.9hPa ENE 15.7mph /  25.3km/h 19.9mph /  32.0km/h 41% 0in /  0.0mm
13:47 31.5 °F /  -0.3 °C 8.6 °F /  -13.0 °C 30.2in /  1020.9hPa NE 14.5mph /  23.3km/h 19.9mph /  32.0km/h 41% 0in /  0.0mm
13:52 31.5 °F /  -0.3 °C 8.6 °F /  -13.0 °C 30.2in /  1020.9hPa NE 8.7mph /  14.0km/h 15.9mph /  25.6km/h 41% 0in /  0.0mm
13:57 31.1 °F /  -0.5 °C 8.6 °F /  -13.0 °C 30.2in /  1020.9hPa ENE 12.5mph /  20.1km/h 19mph /  30.6km/h 41% 0in /  0.0mm
14:02 31.3 °F /  -0.4 °C 8.6 °F /  -13.0 °C 30.1in /  1019.9hPa East 9.8mph /  15.8km/h 19mph /  30.6km/h 41% 0in /  0.0mm
14:07 31.1 °F /  -0.5 °C 8.6 °F /  -13.0 °C 30.1in /  1019.9hPa ENE 7.6mph /  12.2km/h 14.8mph /  23.8km/h 41% 0in /  0.0mm
14:12 31.1 °F /  -0.5 °C 8.6 °F /  -13.0 °C 30.1in /  1019.9hPa NE 11mph /  17.7km/h 12.3mph /  19.8km/h 41% 0in /  0.0mm
14:17 30.9 °F /  -0.6 °C 8.6 °F /  -13.0 °C 30.1in /  1019.9hPa NE 10.1mph /  16.3km/h 13.4mph /  21.6km/h 41% 0in /  0.0mm
14:22 31.1 °F /  -0.5 °C 8.6 °F /  -13.0 °C 30.1in /  1019.9hPa ENE 7.6mph /  12.2km/h 13.4mph /  21.6km/h 41% 0in /  0.0mm
14:27 31.3 °F /  -0.4 °C 8.6 °F /  -13.0 °C 30.1in /  1019.9hPa NE 8.1mph /  13.0km/h 13.2mph /  21.2km/h 41% 0in /  0.0mm
14:32 32 °F /  0.0 °C 10.4 °F /  -12.0 °C 30.1in /  1019.9hPa NNE 15.4mph /  24.8km/h 17.4mph /  28.0km/h 41% 0in /  0.0mm
14:37 32.5 °F /  0.3 °C 12.2 °F /  -11.0 °C 30.1in /  1019.9hPa NE 10.3mph /  16.6km/h 17.4mph /  28.0km/h 40% 0in /  0.0mm
14:42 32 °F /  0.0 °C 8.6 °F /  -13.0 °C 30.1in /  1019.9hPa ENE 13.2mph /  21.2km/h 15.7mph /  25.3km/h 40% 0in /  0.0mm
14:47 31.5 °F /  -0.3 °C 8.6 °F /  -13.0 °C 30.1in /  1018.8hPa ENE 7.6mph /  12.2km/h 15.7mph /  25.3km/h 41% 0in /  0.0mm
14:52 31.1 °F /  -0.5 °C 8.6 °F /  -13.0 °C 30.1in /  1018.8hPa NE 8.7mph /  14.0km/h 15.7mph /  25.3km/h 40% 0in /  0.0mm
14:57 31.1 °F /  -0.5 °C 8.6 °F /  -13.0 °C 30.1in /  1018.8hPa NE 13mph /  20.9km/h 15.4mph /  24.8km/h 40% 0in /  0.0mm
15:02 31.3 °F /  -0.4 °C 8.6 °F /  -13.0 °C 30.1in /  1018.8hPa East 8.5mph /  13.7km/h 17.7mph /  28.5km/h 40% 0in /  0.0mm
15:07 32 °F /  0.0 °C 8.6 °F /  -13.0 °C 30.1in /  1018.8hPa East 12.1mph /  19.5km/h 17.7mph /  28.5km/h 40% 0in /  0.0mm
15:12 32.5 °F /  0.3 °C 12.2 °F /  -11.0 °C 30.1in /  1018.8hPa East 8.1mph /  13.0km/h 15.2mph /  24.5km/h 40% 0in /  0.0mm
15:17 32.5 °F /  0.3 °C 12.2 °F /  -11.0 °C 30.1in /  1018.8hPa ENE 8.5mph /  13.7km/h 15.2mph /  24.5km/h 40% 0in /  0.0mm
15:22 32.4 °F /  0.2 °C 10.4 °F /  -12.0 °C 30.1in /  1018.8hPa East 9.8mph /  15.8km/h 12.5mph /  20.1km/h 40% 0in /  0.0mm
15:27 32.9 °F /  0.5 °C 12.2 °F /  -11.0 °C 30.1in /  1018.8hPa ENE 8.7mph /  14.0km/h 12.5mph /  20.1km/h 40% 0in /  0.0mm
15:32 33.8 °F /  1.0 °C 12.2 °F /  -11.0 °C 30.1in /  1018.8hPa East 10.5mph /  16.9km/h 10.5mph /  16.9km/h 40% 0in /  0.0mm
15:37 34.3 °F /  1.3 °C 12.2 °F /  -11.0 °C 30.1in /  1018.8hPa ENE 7.8mph /  12.6km/h 13.2mph /  21.2km/h 40% 0in /  0.0mm
15:42 34.3 °F /  1.3 °C 12.2 °F /  -11.0 °C 30.1in /  1018.8hPa ENE 14.8mph /  23.8km/h 18.1mph /  29.1km/h 39% 0in /  0.0mm
15:47 34.3 °F /  1.3 °C 12.2 °F /  -11.0 °C 30.1in /  1018.8hPa NE 10.5mph /  16.9km/h 18.1mph /  29.1km/h 39% 0in /  0.0mm
15:52 34.2 °F /  1.2 °C 12.2 °F /  -11.0 °C 30.1in /  1018.8hPa ENE 10.1mph /  16.3km/h 17.7mph /  28.5km/h 38% 0in /  0.0mm
15:57 34 °F /  1.1 °C 10.4 °F /  -12.0 °C 30.1in /  1018.8hPa NE 10.3mph /  16.6km/h 17.4mph /  28.0km/h 38% 0in /  0.0mm
16:02 34.2 °F /  1.2 °C 12.2 °F /  -11.0 °C 30.1in /  1018.8hPa ENE 9.8mph /  15.8km/h 14.5mph /  23.3km/h 39% 0in /  0.0mm
16:07 34.5 °F /  1.4 °C 12.2 °F /  -11.0 °C 30.1in /  1018.8hPa ENE 10.7mph /  17.2km/h 14.5mph /  23.3km/h 39% 0in /  0.0mm
16:12 34.3 °F /  1.3 °C 12.2 °F /  -11.0 °C 30.1in /  1018.8hPa NE 14.8mph /  23.8km/h 17.7mph /  28.5km/h 38% 0in /  0.0mm
16:17 33.1 °F /  0.6 °C 10.4 °F /  -12.0 °C 30.1in /  1018.8hPa ENE 13.2mph /  21.2km/h 20.6mph /  33.1km/h 37% 0in /  0.0mm
16:22 32.5 °F /  0.3 °C 10.4 °F /  -12.0 °C 30.1in /  1018.8hPa NE 15.7mph /  25.3km/h 20.6mph /  33.1km/h 38% 0in /  0.0mm
16:27 32.4 °F /  0.2 °C 10.4 °F /  -12.0 °C 30.1in /  1018.8hPa NE 14.5mph /  23.3km/h 19.2mph /  30.9km/h 38% 0in /  0.0mm
16:32 32 °F /  0.0 °C 8.6 °F /  -13.0 °C 30.1in /  1018.8hPa NE 10.1mph /  16.3km/h 16.3mph /  26.2km/h 39% 0in /  0.0mm
16:37 32 °F /  0.0 °C 8.6 °F /  -13.0 °C 30.1in /  1018.8hPa NE 10.3mph /  16.6km/h 14.5mph /  23.3km/h 40% 0in /  0.0mm
16:42 32.5 °F /  0.3 °C 12.2 °F /  -11.0 °C 30.1in /  1018.8hPa ENE 9.6mph /  15.4km/h 13.2mph /  21.2km/h 40% 0in /  0.0mm
16:47 32.7 °F /  0.4 °C 12.2 °F /  -11.0 °C 30.1in /  1018.8hPa NE 10.5mph /  16.9km/h 14.1mph /  22.7km/h 40% 0in /  0.0mm
16:52 32.4 °F /  0.2 °C 10.4 °F /  -12.0 °C 30.1in /  1018.8hPa NE 11.4mph /  18.3km/h 14.5mph /  23.3km/h 40% 0in /  0.0mm
16:57 31.8 °F /  -0.1 °C 8.6 °F /  -13.0 °C 30.1in /  1018.8hPa ENE 10.5mph /  16.9km/h 17.7mph /  28.5km/h 40% 0in /  0.0mm
17:03 31.6 °F /  -0.2 °C 8.6 °F /  -13.0 °C 30.1in /  1018.8hPa ENE 10.3mph /  16.6km/h 17.7mph /  28.5km/h 40% 0in /  0.0mm
17:08 31.8 °F /  -0.1 °C 8.6 °F /  -13.0 °C 30.1in /  1018.8hPa ENE 11mph /  17.7km/h 16.3mph /  26.2km/h 40% 0in /  0.0mm
17:13 32.2 °F /  0.1 °C 10.4 °F /  -12.0 °C 30.1in /  1018.8hPa NE 11mph /  17.7km/h 15.4mph /  24.8km/h 40% 0in /  0.0mm
17:18 32.5 °F /  0.3 °C 12.2 °F /  -11.0 °C 30.1in /  1018.8hPa NE 10.5mph /  16.9km/h 16.1mph /  25.9km/h 40% 0in /  0.0mm
17:23 32.7 °F /  0.4 °C 12.2 °F /  -11.0 °C 30.1in /  1018.8hPa ENE 12.1mph /  19.5km/h 23mph /  37.0km/h 40% 0in /  0.0mm
17:28 32.4 °F /  0.2 °C 10.4 °F /  -12.0 °C 30.1in /  1018.8hPa ENE 17.2mph /  27.7km/h 23mph /  37.0km/h 40% 0in /  0.0mm
17:33 31.6 °F /  -0.2 °C 10.4 °F /  -12.0 °C 30.1in /  1018.2hPa NNE 10.7mph /  17.2km/h 20.8mph /  33.5km/h 41% 0in /  0.0mm
17:34 31.5 °F /  -0.3 °C 8.6 °F /  -13.0 °C 30.1in /  1018.2hPa North 10.3mph /  16.6km/h 20.8mph /  33.5km/h 41% 0in /  0.0mm
17:40 31.1 °F /  -0.5 °C 8.6 °F /  -13.0 °C 30.1in /  1018.2hPa ENE 12.8mph /  20.6km/h 17.4mph /  28.0km/h 41% 0in /  0.0mm
17:45 30.7 °F /  -0.7 °C 8.6 °F /  -13.0 °C 30.1in /  1018.8hPa NE 8.1mph /  13.0km/h 16.3mph /  26.2km/h 41% 0in /  0.0mm
17:50 30.4 °F /  -0.9 °C 8.6 °F /  -13.0 °C 30.1in /  1018.8hPa NE 7.8mph /  12.6km/h 16.3mph /  26.2km/h 41% 0in /  0.0mm
17:55 30.2 °F /  -1.0 °C 8.6 °F /  -13.0 °C 30.1in /  1018.8hPa NE 8.5mph /  13.7km/h 13mph /  20.9km/h 42% 0in /  0.0mm
18:00 30.2 °F /  -1.0 °C 8.6 °F /  -13.0 °C 30.1in /  1018.8hPa NNE 8.7mph /  14.0km/h 11mph /  17.7km/h 42% 0in /  0.0mm
18:05 29.8 °F /  -1.2 °C 8.6 °F /  -13.0 °C 30.1in /  1018.8hPa NE 8.7mph /  14.0km/h 15.9mph /  25.6km/h 42% 0in /  0.0mm
18:10 29.8 °F /  -1.2 °C 8.6 °F /  -13.0 °C 30.1in /  1018.8hPa NE 10.5mph /  16.9km/h 15.9mph /  25.6km/h 43% 0in /  0.0mm
18:15 29.7 °F /  -1.3 °C 8.6 °F /  -13.0 °C 30.1in /  1018.8hPa NE 11mph /  17.7km/h 15.4mph /  24.8km/h 43% 0in /  0.0mm
18:20 29.5 °F /  -1.4 °C 8.6 °F /  -13.0 °C 30.1in /  1018.8hPa NE 15.4mph /  24.8km/h 17.7mph /  28.5km/h 43% 0in /  0.0mm
18:25 29.3 °F /  -1.5 °C 8.6 °F /  -13.0 °C 30.1in /  1018.8hPa NE 12.3mph /  19.8km/h 17.7mph /  28.5km/h 44% 0in /  0.0mm
18:30 29.1 °F /  -1.6 °C 8.6 °F /  -13.0 °C 30.1in /  1018.8hPa NE 8.7mph /  14.0km/h 15.2mph /  24.5km/h 44% 0in /  0.0mm
18:35 28.9 °F /  -1.7 °C 10.4 °F /  -12.0 °C 30.1in /  1018.8hPa NE 9.6mph /  15.4km/h 15.2mph /  24.5km/h 45% 0in /  0.0mm
18:40 28.9 °F /  -1.7 °C 10.4 °F /  -12.0 °C 30.1in /  1018.8hPa NE 9.4mph /  15.1km/h 13mph /  20.9km/h 45% 0in /  0.0mm
18:45 28.8 °F /  -1.8 °C 10.4 °F /  -12.0 °C 30.1in /  1018.2hPa NE 8.7mph /  14.0km/h 15.7mph /  25.3km/h 45% 0in /  0.0mm
18:50 28.6 °F /  -1.9 °C 10.4 °F /  -12.0 °C 30.1in /  1018.2hPa NNE 8.1mph /  13.0km/h 15.7mph /  25.3km/h 46% 0in /  0.0mm
18:55 28.4 °F /  -2.0 °C 10.4 °F /  -12.0 °C 30.1in /  1018.2hPa NE 7.8mph /  12.6km/h 11mph /  17.7km/h 47% 0in /  0.0mm
19:00 28.4 °F /  -2.0 °C 10.4 °F /  -12.0 °C 30.1in /  1018.2hPa ENE 8.5mph /  13.7km/h 10.7mph /  17.2km/h 48% 0in /  0.0mm
19:05 28.2 °F /  -2.1 °C 10.4 °F /  -12.0 °C 30.1in /  1018.2hPa NE 8.7mph /  14.0km/h 10.5mph /  16.9km/h 48% 0in /  0.0mm
19:10 28.2 °F /  -2.1 °C 10.4 °F /  -12.0 °C 30.1in /  1018.2hPa NE 7.8mph /  12.6km/h 12.1mph /  19.5km/h 49% 0in /  0.0mm
19:15 28 °F /  -2.2 °C 10.4 °F /  -12.0 °C 30.1in /  1018.2hPa NE 8.1mph /  13.0km/h 12.1mph /  19.5km/h 49% 0in /  0.0mm
19:21 27.9 °F /  -2.3 °C 10.4 °F /  -12.0 °C 30.1in /  1018.2hPa NE 7.8mph /  12.6km/h 11.4mph /  18.3km/h 50% 0in /  0.0mm
19:26 27.9 °F /  -2.3 °C 10.4 °F /  -12.0 °C 30.1in /  1018.2hPa NE 8.1mph /  13.0km/h 11.4mph /  18.3km/h 50% 0in /  0.0mm
19:31 27.7 °F /  -2.4 °C 10.4 °F /  -12.0 °C 30.1in /  1018.2hPa NE 7.6mph /  12.2km/h 10.1mph /  16.3km/h 51% 0in /  0.0mm
19:36 27.5 °F /  -2.5 °C 10.4 °F /  -12.0 °C 30.1in /  1018.2hPa NE 6.5mph /  10.5km/h 9.8mph /  15.8km/h 51% 0in /  0.0mm
19:41 27.1 °F /  -2.7 °C 10.4 °F /  -12.0 °C 30.1in /  1018.2hPa NE 6.5mph /  10.5km/h 9.8mph /  15.8km/h 52% 0in /  0.0mm
19:46 27.1 °F /  -2.7 °C 12.2 °F /  -11.0 °C 30.1in /  1018.2hPa NE 7.4mph /  11.9km/h 8.7mph /  14.0km/h 53% 0in /  0.0mm
19:51 27.1 °F /  -2.7 °C 12.2 °F /  -11.0 °C 30.1in /  1018.2hPa NE 5.8mph /  9.3km/h 9.8mph /  15.8km/h 53% 0in /  0.0mm
19:56 27.1 °F /  -2.7 °C 12.2 °F /  -11.0 °C 30.1in /  1018.2hPa NE 8.1mph /  13.0km/h 9.8mph /  15.8km/h 54% 0in /  0.0mm
20:01 27 °F /  -2.8 °C 12.2 °F /  -11.0 °C 30.1in /  1018.2hPa NE 7.2mph /  11.6km/h 8.7mph /  14.0km/h 54% 0in /  0.0mm
20:06 27 °F /  -2.8 °C 12.2 °F /  -11.0 °C 30.1in /  1018.2hPa NE 6.5mph /  10.5km/h 8.7mph /  14.0km/h 54% 0in /  0.0mm
20:11 26.8 °F /  -2.9 °C 12.2 °F /  -11.0 °C 30.1in /  1018.2hPa NNE 4.9mph /  7.9km/h 8.1mph /  13.0km/h 55% 0in /  0.0mm
20:16 26.6 °F /  -3.0 °C 12.2 °F /  -11.0 °C 30.1in /  1018.2hPa ENE 6mph /  9.7km/h 8.1mph /  13.0km/h 55% 0in /  0.0mm
20:21 26.2 °F /  -3.2 °C 12.2 °F /  -11.0 °C 30.1in /  1018.2hPa NE 4.9mph /  7.9km/h 6.5mph /  10.5km/h 56% 0in /  0.0mm
20:26 26.2 °F /  -3.2 °C 12.2 °F /  -11.0 °C 30.1in /  1018.2hPa NE 4.9mph /  7.9km/h 6.3mph /  10.1km/h 56% 0in /  0.0mm
20:31 26.1 °F /  -3.3 °C 12.2 °F /  -11.0 °C 30.1in /  1018.2hPa NE 5.4mph /  8.7km/h 6.3mph /  10.1km/h 56% 0in /  0.0mm
20:36 25.9 °F /  -3.4 °C 12.2 °F /  -11.0 °C 30.1in /  1018.2hPa NE 5.4mph /  8.7km/h 6.3mph /  10.1km/h 57% 0in /  0.0mm
20:41 25.9 °F /  -3.4 °C 12.2 °F /  -11.0 °C 30.1in /  1018.2hPa NE 5.8mph /  9.3km/h 6.3mph /  10.1km/h 57% 0in /  0.0mm
20:46 25.7 °F /  -3.5 °C 12.2 °F /  -11.0 °C 30.1in /  1018.2hPa ENE 3.6mph /  5.8km/h 6.3mph /  10.1km/h 58% 0in /  0.0mm
20:51 25.5 °F /  -3.6 °C 12.2 °F /  -11.0 °C 30.1in /  1018.2hPa ENE 3.8mph /  6.1km/h 5.8mph /  9.3km/h 58% 0in /  0.0mm
20:56 25.3 °F /  -3.7 °C 12.2 °F /  -11.0 °C 30.1in /  1018.2hPa NE 3.6mph /  5.8km/h 4.9mph /  7.9km/h 58% 0in /  0.0mm
21:01 25 °F /  -3.9 °C 12.2 °F /  -11.0 °C 30.1in /  1018.2hPa ENE 3.8mph /  6.1km/h 4mph /  6.4km/h 58% 0in /  0.0mm
21:06 24.8 °F /  -4.0 °C 12.2 °F /  -11.0 °C 30.1in /  1018.2hPa ENE 3.8mph /  6.1km/h 5.4mph /  8.7km/h 59% 0in /  0.0mm
21:11 24.8 °F /  -4.0 °C 12.2 °F /  -11.0 °C 30.1in /  1018.2hPa Calm   5.4mph /  8.7km/h 59% 0in /  0.0mm
21:16 24.6 °F /  -4.1 °C 12.2 °F /  -11.0 °C 30.1in /  1018.2hPa NNE 4mph /  6.4km/h 4.9mph /  7.9km/h 59% 0in /  0.0mm
21:21 24.4 °F /  -4.2 °C 12.2 °F /  -11.0 °C 30.1in /  1018.2hPa Calm   4.5mph /  7.2km/h 59% 0in /  0.0mm
21:26 24.1 °F /  -4.4 °C 10.4 °F /  -12.0 °C 30.1in /  1018.2hPa NNE 4mph /  6.4km/h 4.3mph /  6.9km/h 59% 0in /  0.0mm
21:31 23.7 °F /  -4.6 °C 10.4 °F /  -12.0 °C 30.1in /  1018.2hPa Calm   4mph /  6.4km/h 59% 0in /  0.0mm
21:36 23.5 °F /  -4.7 °C 10.4 °F /  -12.0 °C 30.1in /  1018.2hPa North 4.9mph /  7.9km/h 4.9mph /  7.9km/h 59% 0in /  0.0mm
21:41 23.4 °F /  -4.8 °C 10.4 °F /  -12.0 °C 30.1in /  1018.2hPa NNE 4.3mph /  6.9km/h 6mph /  9.7km/h 61% 0in /  0.0mm
21:46 23.4 °F /  -4.8 °C 10.4 °F /  -12.0 °C 30.1in /  1018.2hPa NNE 3.8mph /  6.1km/h 6mph /  9.7km/h 62% 0in /  0.0mm
21:51 23.4 °F /  -4.8 °C 12.2 °F /  -11.0 °C 30.1in /  1018.2hPa North 6mph /  9.7km/h 6mph /  9.7km/h 63% 0in /  0.0mm
21:57 23.2 °F /  -4.9 °C 12.2 °F /  -11.0 °C 30.1in /  1018.2hPa NNE 6.3mph /  10.1km/h 6.5mph /  10.5km/h 64% 0in /  0.0mm
22:02 23.2 °F /  -4.9 °C 12.2 °F /  -11.0 °C 30.1in /  1018.2hPa NNE 5.4mph /  8.7km/h 6.5mph /  10.5km/h 65% 0in /  0.0mm
22:07 23.2 °F /  -4.9 °C 12.2 °F /  -11.0 °C 30.1in /  1018.2hPa Calm   6.5mph /  10.5km/h 65% 0in /  0.0mm
22:12 23 °F /  -5.0 °C 12.2 °F /  -11.0 °C 30.1in /  1018.2hPa Calm   6.3mph /  10.1km/h 65% 0in /  0.0mm
22:17 23 °F /  -5.0 °C 12.2 °F /  -11.0 °C 30.1in /  1018.2hPa NE 3.1mph /  5.0km/h 6.3mph /  10.1km/h 65% 0in /  0.0mm
22:22 23 °F /  -5.0 °C 12.2 °F /  -11.0 °C 30.1in /  1018.2hPa NE 4.3mph /  6.9km/h 6.3mph /  10.1km/h 66% 0in /  0.0mm
22:27 23.2 °F /  -4.9 °C 12.2 °F /  -11.0 °C 30.1in /  1018.2hPa ENE 3.4mph /  5.5km/h 6mph /  9.7km/h 66% 0in /  0.0mm
22:32 23.4 °F /  -4.8 °C 12.2 °F /  -11.0 °C 30.1in /  1018.2hPa NE 3.8mph /  6.1km/h 7.2mph /  11.6km/h 66% 0in /  0.0mm
22:37 23.4 °F /  -4.8 °C 12.2 °F /  -11.0 °C 30.1in /  1018.2hPa ENE 3.6mph /  5.8km/h 7.2mph /  11.6km/h 66% 0in /  0.0mm
22:42 23.4 °F /  -4.8 °C 12.2 °F /  -11.0 °C 30.1in /  1018.2hPa NE 3.8mph /  6.1km/h 4.9mph /  7.9km/h 65% 0in /  0.0mm
22:47 23.2 °F /  -4.9 °C 12.2 °F /  -11.0 °C 30.1in /  1018.2hPa ENE 2mph /  3.2km/h 4.3mph /  6.9km/h 65% 0in /  0.0mm
22:52 22.8 °F /  -5.1 °C 12.2 °F /  -11.0 °C 30.1in /  1018.2hPa ENE 3.4mph /  5.5km/h 3.8mph /  6.1km/h 64% 0in /  0.0mm
22:57 22.8 °F /  -5.1 °C 12.2 °F /  -11.0 °C 30.1in /  1018.2hPa ENE 4.7mph /  7.6km/h 4.7mph /  7.6km/h 65% 0in /  0.0mm
23:03 22.8 °F /  -5.1 °C 12.2 °F /  -11.0 °C 30.1in /  1018.2hPa NE 4mph /  6.4km/h 4.7mph /  7.6km/h 65% 0in /  0.0mm
23:08 22.6 °F /  -5.2 °C 12.2 °F /  -11.0 °C 30.1in /  1018.2hPa Calm   4.5mph /  7.2km/h 65% 0in /  0.0mm
23:13 22.6 °F /  -5.2 °C 12.2 °F /  -11.0 °C 30.1in /  1018.2hPa NE 2.5mph /  4.0km/h 4.3mph /  6.9km/h 65% 0in /  0.0mm
23:23 22.6 °F /  -5.2 °C 12.2 °F /  -11.0 °C 30.1in /  1018.2hPa NE 2.9mph /  4.7km/h 4.7mph /  7.6km/h 65% 0in /  0.0mm
23:28 22.5 °F /  -5.3 °C 12.2 °F /  -11.0 °C 30.1in /  1018.2hPa Calm   4mph /  6.4km/h 65% 0in /  0.0mm
23:33 22.5 °F /  -5.3 °C 12.2 °F /  -11.0 °C 30.1in /  1018.2hPa ENE 4mph /  6.4km/h 4.7mph /  7.6km/h 65% 0in /  0.0mm
23:38 22.5 °F /  -5.3 °C 12.2 °F /  -11.0 °C 30.1in /  1018.2hPa ENE 4mph /  6.4km/h 5.6mph /  9.0km/h 66% 0in /  0.0mm
23:43 22.6 °F /  -5.2 °C 12.2 °F /  -11.0 °C 30.1in /  1018.2hPa NE 4mph /  6.4km/h 5.6mph /  9.0km/h 66% 0in /  0.0mm
23:48 22.6 °F /  -5.2 °C 12.2 °F /  -11.0 °C 30.1in /  1018.2hPa NE 3.6mph /  5.8km/h 5.6mph /  9.0km/h 66% 0in /  0.0mm
23:53 22.5 °F /  -5.3 °C 12.2 °F /  -11.0 °C 30.1in /  1018.2hPa NE 3.6mph /  5.8km/h 4.9mph /  7.9km/h 66% 0in /  0.0mm
23:58 22.5 °F /  -5.3 °C 12.2 °F /  -11.0 °C 30.1in /  1018.2hPa ENE 1.6mph /  2.6km/h 4mph /  6.4km/h 65% 0in /  0.0mm
Données Historique de Météo Turbie

Mise a jour : 23/06/2018 11:51:14
Généré par Cumulus 1.9.4 (1099)